METAR Data
IDs: Format: Raw Decoded Include TAF

Data at: 1736 UTC 21 Sep 2019

METAR for:KCAG (Craig-Moffat Arpt, CO, US)
Text:KCAG 211653Z AUTO 03004KT 10SM CLR 12/M02 A3018 RMK AO2 SLP182 T01221022
Temperature: 12.2°C ( 54°F)
Dewpoint: -2.2°C ( 28°F) [RH = 37%]
Pressure (altimeter):30.18 inches Hg (1022.1 mb) [Sea level pressure: 1018.2 mb]
Winds:from the NNE (30 degrees) at 5 MPH (4 knots; 2.1 m/s)
Visibility:10 or more sm (16+ km)
Ceiling:at least 12,000 feet AGL
Clouds:sky clear below 12,000 feet AGL
QC Flag:automated observation with no human augmentation